createdAt,value
2019-04-23T00:00:23.578Z,7.90
2019-04-23T00:02:44.397Z,8.17
2019-04-23T00:05:27.246Z,7.43
2019-04-23T00:10:25.659Z,7.93
2019-04-23T00:13:02.275Z,8.27
2019-04-23T00:15:26.633Z,8.50
2019-04-23T00:18:00.463Z,7.80
2019-04-23T00:20:32.470Z,8.40
2019-04-23T00:23:11.423Z,8.80
2019-04-23T00:25:53.772Z,8.40
2019-04-23T00:28:31.382Z,8.17
2019-04-23T00:30:58.189Z,8.63
2019-04-23T00:35:55.239Z,8.30
2019-04-23T00:38:33.909Z,9.23
2019-04-23T00:41:02.840Z,9.37
2019-04-23T00:45:59.418Z,8.33
2019-04-23T00:48:45.596Z,9.57
2019-04-23T00:51:01.997Z,9.03
2019-04-23T00:53:37.146Z,9.00
2019-04-23T00:56:26.702Z,9.00
2019-04-23T01:01:11.141Z,8.60
2019-04-23T01:03:48.577Z,8.80
2019-04-23T01:06:21.046Z,8.80
2019-04-23T01:08:50.860Z,9.07
2019-04-23T01:11:20.430Z,8.90
2019-04-23T01:16:22.807Z,10.43
2019-04-23T01:19:33.667Z,9.07
2019-04-23T01:21:43.287Z,8.57
2019-04-23T01:24:32.477Z,9.00
2019-04-23T01:28:04.247Z,9.40
2019-04-23T01:30:13.978Z,9.67
2019-04-23T01:32:44.103Z,10.23
2019-04-23T01:35:20.353Z,10.10
2019-04-23T01:37:47.702Z,9.30
2019-04-23T01:40:28.922Z,10.00
2019-04-23T01:42:49.328Z,9.80
2019-04-23T01:45:25.960Z,9.97
2019-04-23T01:47:54.923Z,9.20
2019-04-23T01:53:12.290Z,10.20
2019-04-23T01:55:36.207Z,9.77
2019-04-23T01:58:20.560Z,9.70
2019-04-23T02:03:09.386Z,9.60
2019-04-23T02:05:41.334Z,9.77
2019-04-23T02:08:15.659Z,11.20
2019-04-23T02:10:53.629Z,10.50
2019-04-23T02:13:27.248Z,10.60
2019-04-23T02:16:06.716Z,10.10
2019-04-23T02:18:20.591Z,10.13
2019-04-23T02:21:00.695Z,10.13
2019-04-23T02:23:46.401Z,11.20
2019-04-23T02:26:12.895Z,11.10
2019-04-23T02:28:55.761Z,10.53
2019-04-23T02:31:35.795Z,10.70
2019-04-23T02:34:00.614Z,11.43
2019-04-23T02:36:25.805Z,11.17
2019-04-23T02:39:00.967Z,10.07
2019-04-23T02:41:41.383Z,10.23
2019-04-23T02:44:04.840Z,11.10
2019-04-23T02:46:54.265Z,10.80
2019-04-23T02:49:04.967Z,10.80
2019-04-23T02:51:35.271Z,11.07
2019-04-23T02:54:08.571Z,10.73
2019-04-23T02:56:51.083Z,10.93
2019-04-23T03:02:09.506Z,11.00
2019-04-23T03:04:17.476Z,10.60
2019-04-23T03:06:45.943Z,11.80
2019-04-23T03:09:23.612Z,11.47
2019-04-23T03:11:52.249Z,11.20
2019-04-23T03:14:29.093Z,10.90
2019-04-23T03:17:00.271Z,11.37
2019-04-23T03:22:26.372Z,10.67
2019-04-23T03:25:12.931Z,10.67
2019-04-23T03:27:37.406Z,11.40
2019-04-23T03:30:16.271Z,11.60
2019-04-23T03:35:55.168Z,11.60
2019-04-23T03:40:13.824Z,11.33
2019-04-23T03:42:47.688Z,10.73
2019-04-23T03:45:25.554Z,10.60
2019-04-23T03:47:48.999Z,10.77
2019-04-23T03:50:37.096Z,11.20
2019-04-23T03:52:51.049Z,10.80
2019-04-23T03:57:52.362Z,10.17
2019-04-23T04:00:39.733Z,10.73
2019-04-23T04:03:10.835Z,10.47
2019-04-23T04:05:40.035Z,10.37
2019-04-23T04:08:20.273Z,9.83
2019-04-23T04:10:50.332Z,10.63
2019-04-23T04:13:07.014Z,9.27
2019-04-23T04:20:49.341Z,10.07
2019-04-23T04:23:22.689Z,10.57
2019-04-23T04:25:48.691Z,10.03
2019-04-23T04:28:28.842Z,9.47
2019-04-23T04:31:10.036Z,10.30
2019-04-23T04:36:01.011Z,10.77
2019-04-23T04:41:01.230Z,9.63
2019-04-23T04:43:47.600Z,9.77
2019-04-23T04:46:14.901Z,10.43
2019-04-23T04:48:56.500Z,10.40
2019-04-23T04:56:16.770Z,9.20
2019-04-23T05:01:13.802Z,10.03
2019-04-23T05:03:57.913Z,9.33
2019-04-23T05:16:19.312Z,9.67
2019-04-23T05:19:02.583Z,9.47
2019-04-23T05:21:26.938Z,9.17
2019-04-23T05:26:30.375Z,9.37
2019-04-23T05:29:04.825Z,9.30
2019-04-23T05:31:45.038Z,9.17
2019-04-23T05:41:36.862Z,8.63
2019-04-23T05:44:17.163Z,8.97
2019-04-23T05:46:36.642Z,8.90
2019-04-23T05:49:10.942Z,9.30
2019-04-23T05:51:50.887Z,8.90
2019-04-23T05:54:19.089Z,8.53
2019-04-23T05:56:49.017Z,8.87
2019-04-23T05:59:18.146Z,9.50
2019-04-23T06:04:24.619Z,8.90
2019-04-23T06:09:25.310Z,8.63
2019-04-23T06:14:32.932Z,8.67
2019-04-23T06:17:04.659Z,8.03
2019-04-23T06:19:24.704Z,8.93
2019-04-23T06:24:55.166Z,8.90
2019-04-23T06:27:13.565Z,8.53
2019-04-23T06:29:44.947Z,8.20
2019-04-23T06:32:13.214Z,8.40
2019-04-23T06:34:41.177Z,8.07
2019-04-23T06:37:18.428Z,7.83
2019-04-23T06:39:48.298Z,8.63
2019-04-23T06:42:17.687Z,8.03
2019-04-23T06:47:23.527Z,7.83
2019-04-23T06:49:55.681Z,8.40
2019-04-23T06:52:30.176Z,8.60
2019-04-23T06:55:01.170Z,9.00
2019-04-23T06:57:27.084Z,8.03
2019-04-23T07:02:39.222Z,8.17
2019-04-23T07:05:12.162Z,8.07
2019-04-23T07:10:16.575Z,8.70
2019-04-23T07:12:42.968Z,7.70
2019-04-23T07:15:30.864Z,7.90
2019-04-23T07:17:46.169Z,7.57
2019-04-23T07:22:49.982Z,7.97
2019-04-23T07:25:22.105Z,8.27
2019-04-23T07:27:47.378Z,8.83
2019-04-23T07:32:57.158Z,7.60
2019-04-23T07:35:21.201Z,7.30
2019-04-23T07:38:09.283Z,7.93
2019-04-23T07:40:54.378Z,7.47
2019-04-23T07:43:46.238Z,8.13
2019-04-23T07:46:30.646Z,8.10
2019-04-23T07:48:49.131Z,8.07
2019-04-23T07:51:27.703Z,7.90
2019-04-23T07:54:06.273Z,8.00
2019-04-23T07:56:31.870Z,7.37
2019-04-23T07:59:05.749Z,8.30
2019-04-23T08:01:29.755Z,7.13
2019-04-23T08:04:01.825Z,7.90
2019-04-23T08:06:29.657Z,8.13
2019-04-23T08:09:10.952Z,7.07
2019-04-23T08:14:30.150Z,7.73
2019-04-23T08:19:16.989Z,6.80
2019-04-23T08:21:43.882Z,7.03
2019-04-23T08:24:48.612Z,6.47
2019-04-23T08:27:18.192Z,7.50
2019-04-23T08:29:44.517Z,7.17
2019-04-23T08:32:29.499Z,6.50
2019-04-23T08:35:10.915Z,6.60
2019-04-23T08:37:58.468Z,6.47
2019-04-23T08:39:52.663Z,7.30
2019-04-23T08:42:42.773Z,6.57
2019-04-23T08:45:29.631Z,7.03
2019-04-23T08:48:21.531Z,6.90
2019-04-23T08:51:07.478Z,6.27
2019-04-23T08:55:50.143Z,6.43
2019-04-23T09:03:27.684Z,6.13
2019-04-23T09:05:57.686Z,6.00
2019-04-23T09:11:04.684Z,6.97
2019-04-23T09:16:08.660Z,5.67
2019-04-23T09:18:32.714Z,6.80
2019-04-23T09:21:07.347Z,6.13
2019-04-23T09:23:39.174Z,5.80
2019-04-23T09:26:20.564Z,6.40
2019-04-23T09:28:46.356Z,6.10
2019-04-23T09:31:45.592Z,7.17
2019-04-23T09:34:29.785Z,6.00
2019-04-23T09:36:59.896Z,6.43
2019-04-23T09:39:43.296Z,6.10
2019-04-23T09:42:25.670Z,6.63
2019-04-23T09:45:23.282Z,7.67
2019-04-23T09:53:17.089Z,6.80
2019-04-23T09:55:41.697Z,6.37
2019-04-23T09:58:21.864Z,6.30
2019-04-23T10:01:09.857Z,7.20
2019-04-23T10:03:09.188Z,5.20
2019-04-23T10:05:39.116Z,6.20
2019-04-23T10:08:10.754Z,6.10
2019-04-23T10:10:32.244Z,5.97
2019-04-23T10:13:04.073Z,5.77
2019-04-23T10:15:38.842Z,5.73
2019-04-23T10:18:05.987Z,5.40
2019-04-23T10:20:36.394Z,6.10
2019-04-23T10:23:06.364Z,6.03
2019-04-23T10:25:38.237Z,5.87
2019-04-23T10:28:16.716Z,6.70
2019-04-23T10:30:46.854Z,6.13
2019-04-23T10:33:16.799Z,6.40
2019-04-23T10:35:56.441Z,5.70
2019-04-23T10:38:20.341Z,6.13
2019-04-23T10:40:50.811Z,5.90
2019-04-23T10:43:22.667Z,6.37
2019-04-23T10:46:32.556Z,5.83
2019-04-23T10:52:04.175Z,6.57
2019-04-23T10:54:35.833Z,5.80
2019-04-23T10:56:59.019Z,5.53
2019-04-23T11:02:36.354Z,6.10
2019-04-23T11:04:53.712Z,6.60
2019-04-23T11:07:28.711Z,5.40
2019-04-23T11:12:37.590Z,5.30
2019-04-23T11:15:26.994Z,6.17
2019-04-23T11:17:50.066Z,8.97
2019-04-23T11:20:30.294Z,6.23
2019-04-23T11:25:31.516Z,6.33
2019-04-23T11:28:05.639Z,5.90
2019-04-23T11:35:50.480Z,5.27
2019-04-23T11:38:35.589Z,5.67
2019-04-23T11:40:37.086Z,7.00
2019-04-23T11:45:59.197Z,5.57
2019-04-23T11:53:26.080Z,6.77
2019-04-23T11:55:55.625Z,5.43
2019-04-23T11:58:29.796Z,5.77
2019-04-23T12:01:38.665Z,7.13
2019-04-23T12:04:05.414Z,6.33
2019-04-23T12:06:47.823Z,5.93
2019-04-23T12:09:34.849Z,6.80
2019-04-23T12:17:20.385Z,6.10
2019-04-23T12:20:33.757Z,5.83
2019-04-23T12:22:21.624Z,5.83
2019-04-23T12:27:27.543Z,5.90
2019-04-23T12:29:57.572Z,5.47
2019-04-23T12:37:44.873Z,5.80
2019-04-23T12:45:26.841Z,6.03
2019-04-23T12:53:05.733Z,6.23
2019-04-23T12:58:01.322Z,6.13
2019-04-23T13:03:08.542Z,6.30
2019-04-23T13:05:57.535Z,6.17
2019-04-23T13:08:33.718Z,6.43
2019-04-23T13:10:57.686Z,5.60
2019-04-23T13:13:48.747Z,7.13
2019-04-23T13:16:04.680Z,6.23
2019-04-23T13:21:14.226Z,6.60
2019-04-23T13:23:34.847Z,7.30
2019-04-23T13:26:04.040Z,6.47
2019-04-23T13:33:58.044Z,6.43
2019-04-23T13:36:24.386Z,6.40
2019-04-23T13:38:47.282Z,6.27
2019-04-23T13:41:23.140Z,6.27
2019-04-23T13:44:02.665Z,6.20
2019-04-23T13:46:28.823Z,6.20
2019-04-23T13:48:58.681Z,6.60
2019-04-23T13:51:39.470Z,7.87
2019-04-23T13:54:07.889Z,6.17
2019-04-23T13:59:31.410Z,6.63
2019-04-23T14:01:54.434Z,6.30
2019-04-23T14:06:53.424Z,6.47
2019-04-23T14:09:41.830Z,6.00
2019-04-23T14:11:55.003Z,6.27
2019-04-23T14:14:41.390Z,6.87
2019-04-23T14:17:11.505Z,5.90
2019-04-23T14:19:41.830Z,5.97
2019-04-23T14:22:21.231Z,7.10
2019-04-23T14:27:14.909Z,6.23
2019-04-23T14:29:48.159Z,6.47
2019-04-23T14:32:23.357Z,6.67
2019-04-23T14:34:54.705Z,7.20
2019-04-23T14:37:18.177Z,7.23
2019-04-23T14:39:56.027Z,7.00
2019-04-23T14:42:30.929Z,6.63
2019-04-23T14:45:09.832Z,6.80
2019-04-23T14:47:27.977Z,6.93
2019-04-23T14:50:24.310Z,7.00
2019-04-23T14:52:41.295Z,7.37
2019-04-23T14:58:07.122Z,7.20
2019-04-23T15:00:23.479Z,7.27
2019-04-23T15:02:51.863Z,7.27
2019-04-23T15:05:20.244Z,7.70
2019-04-23T15:07:50.705Z,7.30
2019-04-23T15:13:01.601Z,7.40
2019-04-23T15:15:33.966Z,7.50
2019-04-23T15:18:09.843Z,7.40
2019-04-23T15:20:50.306Z,6.80
2019-04-23T15:26:22.619Z,7.43
2019-04-23T15:28:07.533Z,7.70
2019-04-23T15:31:02.740Z,7.80
2019-04-23T15:33:35.381Z,7.50
2019-04-23T15:36:27.447Z,8.13
2019-04-23T15:41:15.288Z,8.10
2019-04-23T15:43:52.242Z,8.17
2019-04-23T15:46:25.327Z,7.43
2019-04-23T15:49:01.116Z,7.40
2019-04-23T15:51:30.587Z,8.60
2019-04-23T15:53:56.643Z,8.60
2019-04-23T15:56:35.818Z,8.00
2019-04-23T16:01:34.528Z,9.10
2019-04-23T16:03:33.885Z,8.70
2019-04-23T16:06:04.781Z,8.63
2019-04-23T16:16:55.747Z,8.47
2019-04-23T16:24:26.563Z,8.40
2019-04-23T16:27:01.599Z,9.10
2019-04-23T16:32:08.522Z,8.83
2019-04-23T16:34:54.144Z,9.20
2019-04-23T16:37:27.349Z,9.37
2019-04-23T16:40:01.871Z,9.17
2019-04-23T16:42:29.587Z,9.30
2019-04-23T16:48:15.781Z,9.20
2019-04-23T16:50:57.395Z,14.67
2019-04-23T16:53:16.144Z,8.23
2019-04-23T16:58:22.243Z,9.03
2019-04-23T17:03:29.038Z,10.40
2019-04-23T17:13:29.223Z,10.63
2019-04-23T17:16:06.682Z,10.20
2019-04-23T17:18:31.886Z,11.17
2019-04-23T17:20:56.012Z,11.07
2019-04-23T17:26:04.078Z,11.13
2019-04-23T17:28:54.302Z,10.60
2019-04-23T17:31:27.917Z,14.23
2019-04-23T17:33:43.764Z,11.10
2019-04-23T17:39:02.809Z,11.20
2019-04-23T17:41:41.791Z,10.97
2019-04-23T17:44:21.934Z,10.10
2019-04-23T17:49:15.281Z,11.77
2019-04-23T17:51:42.309Z,11.53
2019-04-23T17:54:17.379Z,11.33
2019-04-23T17:56:55.990Z,11.50
2019-04-23T17:59:20.476Z,12.93
2019-04-23T18:02:08.247Z,11.47
2019-04-23T18:04:29.535Z,13.10
2019-04-23T18:06:56.061Z,11.77
2019-04-23T18:12:00.837Z,11.50
2019-04-23T18:14:28.268Z,11.20
2019-04-23T18:17:24.282Z,11.33
2019-04-23T18:19:32.420Z,11.57
2019-04-23T18:22:35.583Z,11.93
2019-04-23T18:25:37.537Z,11.67
2019-04-23T18:36:09.835Z,12.60
2019-04-23T18:41:17.050Z,10.73
2019-04-23T18:43:50.754Z,11.23
2019-04-23T18:46:35.606Z,12.57
2019-04-23T18:49:11.301Z,11.37
2019-04-23T18:51:55.079Z,11.90
2019-04-23T18:54:28.525Z,12.00
2019-04-23T18:59:37.166Z,11.63
2019-04-23T19:02:27.504Z,14.20
2019-04-23T19:05:08.724Z,12.07
2019-04-23T19:07:59.331Z,18.07
2019-04-23T19:13:07.091Z,13.30
2019-04-23T19:15:38.174Z,18.07
2019-04-23T19:18:23.316Z,10.93
2019-04-23T19:23:25.554Z,12.53
2019-04-23T19:25:51.867Z,11.87
2019-04-23T19:28:42.664Z,10.57
2019-04-23T19:34:13.898Z,10.93
2019-04-23T19:39:17.804Z,12.13
2019-04-23T19:46:58.201Z,9.30
2019-04-23T19:51:59.485Z,8.90
2019-04-23T19:54:47.695Z,9.63
2019-04-23T19:57:09.262Z,9.10
2019-04-23T20:02:22.884Z,9.00
2019-04-23T20:04:45.941Z,9.47
2019-04-23T20:07:22.779Z,9.47
2019-04-23T20:09:51.637Z,8.80
2019-04-23T20:12:25.355Z,8.50
2019-04-23T20:14:56.188Z,8.97
2019-04-23T20:20:00.894Z,8.23
2019-04-23T20:22:41.768Z,6.80
2019-04-23T20:30:55.096Z,7.23
2019-04-23T20:36:05.389Z,5.53
2019-04-23T20:38:47.672Z,5.90
2019-04-23T20:41:14.566Z,6.30
2019-04-23T20:43:42.612Z,6.80
2019-04-23T20:46:14.871Z,6.20
2019-04-23T20:48:48.318Z,5.43
2019-04-23T20:51:14.357Z,7.50
2019-04-23T20:53:50.193Z,5.43
2019-04-23T20:56:31.881Z,5.87
2019-04-23T20:59:00.303Z,6.00
2019-04-23T21:01:38.603Z,7.60
2019-04-23T21:04:00.409Z,5.13
2019-04-23T21:06:45.882Z,5.03
2019-04-23T21:11:48.223Z,5.10
2019-04-23T21:14:28.496Z,5.20
2019-04-23T21:19:25.923Z,5.00
2019-04-23T21:22:14.033Z,5.67
2019-04-23T21:24:43.054Z,6.27
2019-04-23T21:27:21.835Z,5.00
2019-04-23T21:29:53.830Z,4.97
2019-04-23T21:32:28.921Z,4.97
2019-04-23T21:34:59.807Z,4.73
2019-04-23T21:37:37.384Z,5.33
2019-04-23T21:40:53.641Z,4.90
2019-04-23T21:43:09.499Z,4.43
2019-04-23T21:45:48.375Z,4.37
2019-04-23T21:48:10.286Z,5.13
2019-04-23T21:50:44.489Z,4.33
2019-04-23T21:53:11.770Z,3.87
2019-04-23T21:55:54.073Z,4.87
2019-04-23T21:58:25.764Z,4.30
2019-04-23T22:00:58.811Z,3.93
2019-04-23T22:03:29.017Z,5.17
2019-04-23T22:06:01.826Z,3.77
2019-04-23T22:08:27.003Z,4.07
2019-04-23T22:11:10.417Z,4.50
2019-04-23T22:16:06.019Z,3.70
2019-04-23T22:18:37.975Z,4.40
2019-04-23T22:21:11.659Z,3.80
2019-04-23T22:23:41.929Z,4.47
2019-04-23T22:28:50.069Z,4.30
2019-04-23T22:32:27.149Z,3.70
2019-04-23T22:33:57.913Z,3.80
2019-04-23T22:36:16.502Z,3.87
2019-04-23T22:38:51.206Z,3.50
2019-04-23T22:41:20.920Z,3.90
2019-04-23T22:44:02.408Z,4.33
2019-04-23T22:46:23.024Z,4.07
2019-04-23T22:49:17.976Z,3.43
2019-04-23T22:51:43.753Z,3.22
2019-04-23T22:56:45.158Z,3.80
2019-04-23T22:59:18.500Z,3.70
2019-04-23T23:01:54.743Z,3.50
2019-04-23T23:11:54.171Z,3.83
2019-04-23T23:14:30.955Z,3.70
2019-04-23T23:16:59.792Z,3.40
2019-04-23T23:19:34.507Z,3.80
2019-04-23T23:22:06.404Z,4.00
2019-04-23T23:24:28.144Z,3.60
2019-04-23T23:27:10.279Z,3.57
2019-04-23T23:29:42.590Z,3.90
2019-04-23T23:32:13.319Z,3.67
2019-04-23T23:34:54.296Z,3.87
2019-04-23T23:37:12.100Z,3.80
2019-04-23T23:40:04.952Z,3.53
2019-04-23T23:47:14.672Z,3.87
2019-04-23T23:49:55.798Z,4.67
2019-04-23T23:52:22.023Z,3.60
2019-04-23T23:54:53.108Z,4.00
